HEMM

Mersa Matruh Airport

Mersa Matruh, Egypt
METAR HEMM 251700Z 34007KT 9999 SCT020 26/21 Q1015 NOSIG
Observed Flight Rules
Sep-25 @ 17:00 UTC (2 hours ago) Visual Flight Rules
Wind Visibility Clouds
340° at 7 knots 10,000+ meters
  • Scattered at 2,000' AGL
Temperatures Readings
Current 26°C / 79°F
Dewpoint 21°C / 70°F
Humidity 74%
Altimeter 29.97" Hg
Pressure 1015 hPa
Elevation 30
METAR HEMM 251700Z 34007KT 9999 SCT020 26/21 Q1015 NOSIG
Observed Flight Rules
Sep-25 @ 17:00 UTC
(2 hours ago)
VFR
Wind Visibility
340° at 7 knots 10,000+ meters
Clouds
  • Scattered at 2,000' AGL
Temperature Dewpoint
26°C / 79°F 21°C / 70°F
Humidity Altimeter Pressure
74% 29.97" Hg 1015 hPa